Time;durP1;ratioP1;P1;durP2;ratioP2;P2;SDS_P1;SDS_P2;PMS_P1;PMS_P2;Temp;Humidity;BMP_temperature;BMP_pressure;BME280_temperature;BME280_humidity;BME280_pressure;Samples;Min_cycle;Max_cycle;Signal;HPM_P1;HPM_P2
2023/03/22 00:02:03;;;;;;;;;;;23.80;99.90;;;;;;5039075;28;20424;-68
2023/03/22 00:04:30;;;;;;;;;;;23.80;99.90;;;;;;5056840;28;19908;-68
2023/03/22 00:06:56;;;;;;;;;;;23.70;99.90;;;;;;5059157;28;19909;-66
2023/03/22 00:09:23;;;;;;;;;;;23.60;99.90;;;;;;5040372;28;20137;-68
2023/03/22 00:11:49;;;;;;;;;;;23.50;99.90;;;;;;5039047;28;19919;-66
2023/03/22 00:14:19;;;;;;;;;;;23.50;99.90;;;;;;5055872;28;19916;-65
2023/03/22 00:16:47;;;;;;;;;;;23.50;99.90;;;;;;5041389;28;20383;-64
2023/03/22 00:19:15;;;;;;;;;;;23.50;99.90;;;;;;5041142;28;19912;-66
2023/03/22 00:21:42;;;;;;;;;;;23.50;99.90;;;;;;5040183;28;20393;-68
2023/03/22 00:24:08;;;;;;;;;;;23.60;99.90;;;;;;5039618;28;20333;-66
2023/03/22 00:26:35;;;;;;;;;;;23.60;99.90;;;;;;5039179;28;19912;-69
2023/03/22 00:29:01;;;;;;;;;;;23.70;99.90;;;;;;5040481;28;19916;-67
2023/03/22 00:31:28;;;;;;;;;;;23.80;99.90;;;;;;5040467;28;19958;-67
2023/03/22 00:33:55;;;;;;;;;;;23.80;99.90;;;;;;5042369;28;20101;-68
2023/03/22 00:36:21;;;;;;;;;;;23.90;99.90;;;;;;5040936;28;20301;-68
2023/03/22 00:38:48;;;;;;;;;;;23.90;99.90;;;;;;5037995;28;19916;-68
2023/03/22 00:41:16;;;;;;;;;;;23.90;99.90;;;;;;5040146;28;20427;-69
2023/03/22 00:43:43;;;;;;;;;;;23.90;99.90;;;;;;5047505;28;20305;-70
2023/03/22 00:46:11;;;;;;;;;;;24.10;99.90;;;;;;5038670;28;20238;-69
2023/03/22 00:48:37;;;;;;;;;;;24.20;99.90;;;;;;5041394;28;19909;-70
2023/03/22 00:51:04;;;;;;;;;;;24.20;99.90;;;;;;5039256;28;19962;-65
2023/03/22 00:53:32;;;;;;;;;;;24.30;99.90;;;;;;5039820;28;19913;-67
2023/03/22 00:55:58;;;;;;;;;;;24.20;99.90;;;;;;5038917;28;20203;-67
2023/03/22 00:58:25;;;;;;;;;;;24.20;99.90;;;;;;5039659;28;19949;-66
2023/03/22 01:00:52;;;;;;;;;;;24.30;99.90;;;;;;5037456;28;19943;-69
2023/03/22 01:03:20;;;;;;;;;;;24.20;99.90;;;;;;5039252;28;19921;-66
2023/03/22 01:05:48;;;;;;;;;;;24.10;99.90;;;;;;5038039;28;19940;-68
2023/03/22 01:08:15;;;;;;;;;;;24.00;99.90;;;;;;5039552;28;19960;-68
2023/03/22 01:10:42;;;;;;;;;;;23.90;99.90;;;;;;5037667;28;19962;-65
2023/03/22 01:13:10;;;;;;;;;;;24.00;99.90;;;;;;5038846;28;20620;-69
2023/03/22 01:15:36;;;;;;;;;;;24.10;99.90;;;;;;5039247;28;19913;-67
2023/03/22 01:18:03;;;;;;;;;;;24.10;99.90;;;;;;5037722;28;19923;-68
2023/03/22 01:20:30;;;;;;;;;;;24.10;99.90;;;;;;5039551;28;19909;-68
2023/03/22 01:22:56;;;;;;;;;;;24.00;99.90;;;;;;5039772;28;19920;-65
2023/03/22 01:25:23;;;;;;;;;;;24.00;99.90;;;;;;5039415;28;19952;-67
2023/03/22 01:27:49;;;;;;;;;;;24.10;99.90;;;;;;5038217;28;20293;-70
2023/03/22 01:30:16;;;;;;;;;;;24.20;99.90;;;;;;5038380;28;20292;-67
2023/03/22 01:32:43;;;;;;;;;;;24.10;99.90;;;;;;5040956;28;19923;-66
2023/03/22 01:35:09;;;;;;;;;;;23.90;99.90;;;;;;5058924;28;19908;-69
2023/03/22 01:37:36;;;;;;;;;;;23.90;99.90;;;;;;5059694;28;20440;-67
2023/03/22 01:40:03;;;;;;;;;;;23.80;99.90;;;;;;5049448;28;19917;-68
2023/03/22 01:42:30;;;;;;;;;;;23.80;99.90;;;;;;5042254;28;19920;-66
2023/03/22 01:45:18;;;;;;;;;;;23.90;99.90;;;;;;5039554;28;19913;-68
2023/03/22 01:47:58;;;;;;;;;;;24.10;99.90;;;;;;5043338;28;19912;-68
2023/03/22 01:50:25;;;;;;;;;;;24.30;99.90;;;;;;5043782;28;20259;-67
2023/03/22 01:52:52;;;;;;;;;;;24.60;99.90;;;;;;5042092;28;20004;-69
2023/03/22 01:55:21;;;;;;;;;;;24.70;99.90;;;;;;5043303;28;19908;-68
2023/03/22 01:57:48;;;;;;;;;;;24.70;99.90;;;;;;5041277;28;19920;-68
2023/03/22 02:00:17;;;;;;;;;;;24.80;99.90;;;;;;5042558;28;19913;-69
2023/03/22 02:02:45;;;;;;;;;;;24.90;99.90;;;;;;5042684;28;19943;-68
2023/03/22 02:05:12;;;;;;;;;;;25.10;99.90;;;;;;5040707;28;20327;-68
2023/03/22 02:07:40;;;;;;;;;;;25.00;99.90;;;;;;5043163;28;19920;-68
2023/03/22 02:10:11;;;;;;;;;;;25.00;99.90;;;;;;5039452;28;19999;-69
2023/03/22 02:12:52;;;;;;;;;;;25.00;99.90;;;;;;5043624;28;19912;-68
2023/03/22 02:15:24;;;;;;;;;;;24.80;99.90;;;;;;5041910;28;19917;-71
2023/03/22 02:18:00;;;;;;;;;;;24.80;99.90;;;;;;5041383;28;20038;-69
2023/03/22 02:20:45;;;;;;;;;;;24.80;99.90;;;;;;5040813;28;20378;-69
2023/03/22 02:23:12;;;;;;;;;;;24.70;99.90;;;;;;5030238;28;19924;-69
2023/03/22 02:25:51;;;;;;;;;;;24.60;99.90;;;;;;5043070;28;19909;-69
2023/03/22 02:28:27;;;;;;;;;;;24.50;99.90;;;;;;5041576;28;19959;-67
2023/03/22 02:31:12;;;;;;;;;;;24.40;99.90;;;;;;5045747;28;20030;-68
2023/03/22 02:33:56;;;;;;;;;;;24.30;99.90;;;;;;5060960;28;19958;-71
2023/03/22 02:36:33;;;;;;;;;;;24.30;99.90;;;;;;5060395;28;20396;-67
2023/03/22 02:39:05;;;;;;;;;;;24.30;99.90;;;;;;5059212;28;19927;-67
2023/03/22 02:41:32;;;;;;;;;;;24.30;99.90;;;;;;5052759;28;19960;-68
2023/03/22 02:44:03;;;;;;;;;;;24.30;99.90;;;;;;5038903;28;19919;-68
2023/03/22 02:46:36;;;;;;;;;;;24.40;99.90;;;;;;5039970;28;20044;-65
2023/03/22 02:49:03;;;;;;;;;;;24.50;99.90;;;;;;5039525;28;19913;-69
2023/03/22 02:51:36;;;;;;;;;;;24.60;99.90;;;;;;5050666;28;19909;-68
2023/03/22 02:54:10;;;;;;;;;;;24.90;99.90;;;;;;5053357;28;19952;-67
2023/03/22 02:56:49;;;;;;;;;;;25.50;99.90;;;;;;5042047;28;20419;-67
2023/03/22 02:59:16;;;;;;;;;;;25.80;99.90;;;;;;5039216;28;19909;-66
2023/03/22 03:01:54;;;;;;;;;;;26.10;99.90;;;;;;5044899;28;19913;-70
2023/03/22 03:04:27;;;;;;;;;;;26.40;99.50;;;;;;5040931;28;20325;-69
2023/03/22 03:06:57;;;;;;;;;;;26.50;99.70;;;;;;5040431;28;20003;-69
2023/03/22 03:09:24;;;;;;;;;;;26.50;99.30;;;;;;5040449;28;19932;-68
2023/03/22 03:11:52;;;;;;;;;;;26.60;99.70;;;;;;5042424;28;19909;-69
2023/03/22 03:14:23;;;;;;;;;;;26.50;99.50;;;;;;5040058;28;20366;-70
2023/03/22 03:16:56;;;;;;;;;;;26.30;99.50;;;;;;5041243;28;19913;-68
2023/03/22 03:19:30;;;;;;;;;;;26.30;99.90;;;;;;5040686;28;20411;-69
2023/03/22 03:22:01;;;;;;;;;;;26.20;99.60;;;;;;5054857;28;19912;-67
2023/03/22 03:24:28;;;;;;;;;;;26.10;99.90;;;;;;5059393;28;19913;-64
2023/03/22 03:27:04;;;;;;;;;;;26.10;99.90;;;;;;5041824;28;19909;-66
2023/03/22 03:29:50;;;;;;;;;;;26.00;99.40;;;;;;5041397;28;19978;-70
2023/03/22 03:32:20;;;;;;;;;;;25.80;99.90;;;;;;5040759;28;20722;-69
2023/03/22 03:34:48;;;;;;;;;;;25.70;99.90;;;;;;5041506;28;19932;-67
2023/03/22 03:37:17;;;;;;;;;;;25.40;99.90;;;;;;5040077;28;19912;-70
2023/03/22 03:39:47;;;;;;;;;;;25.20;99.90;;;;;;5041313;28;19999;-70
2023/03/22 03:42:15;;;;;;;;;;;25.10;99.90;;;;;;5041664;28;20016;-68
2023/03/22 03:44:42;;;;;;;;;;;25.10;99.90;;;;;;5040804;28;20008;-70
2023/03/22 03:47:10;;;;;;;;;;;25.00;99.90;;;;;;5039716;28;20365;-71
2023/03/22 03:49:37;;;;;;;;;;;24.90;99.90;;;;;;5039421;28;20370;-71
2023/03/22 03:52:04;;;;;;;;;;;25.00;99.90;;;;;;5044007;28;19913;-71
2023/03/22 03:54:31;;;;;;;;;;;25.10;99.90;;;;;;5040248;28;20277;-69
2023/03/22 03:56:58;;;;;;;;;;;25.10;99.90;;;;;;5040449;28;20328;-68
2023/03/22 03:59:24;;;;;;;;;;;25.20;99.90;;;;;;5038747;28;19909;-66
2023/03/22 04:01:51;;;;;;;;;;;24.90;99.90;;;;;;5039333;28;20274;-67
2023/03/22 04:04:27;;;;;;;;;;;24.90;99.90;;;;;;5039989;28;19908;-67
2023/03/22 04:06:55;;;;;;;;;;;24.90;99.90;;;;;;5039821;28;19955;-67
2023/03/22 04:09:26;;;;;;;;;;;25.00;99.90;;;;;;5039347;28;20292;-66
2023/03/22 04:11:53;;;;;;;;;;;25.00;99.90;;;;;;5052527;28;20284;-67
2023/03/22 04:14:20;;;;;;;;;;;25.20;99.90;;;;;;5046713;28;19948;-69
2023/03/22 04:16:47;;;;;;;;;;;25.30;99.90;;;;;;5040224;28;20277;-67
2023/03/22 04:19:14;;;;;;;;;;;25.60;99.90;;;;;;5038460;28;19913;-70
2023/03/22 04:21:41;;;;;;;;;;;25.70;99.90;;;;;;5047983;28;19969;-69
2023/03/22 04:24:07;;;;;;;;;;;25.80;99.90;;;;;;5054472;28;19908;-72
2023/03/22 04:26:34;;;;;;;;;;;26.00;99.90;;;;;;5036801;28;19982;-68
2023/03/22 04:29:04;;;;;;;;;;;25.90;99.90;;;;;;5028966;28;20302;-66
2023/03/22 04:31:31;;;;;;;;;;;26.00;99.90;;;;;;5036304;28;19919;-67
2023/03/22 04:34:04;;;;;;;;;;;25.90;99.90;;;;;;5060321;28;19912;-69
2023/03/22 04:36:34;;;;;;;;;;;25.90;99.90;;;;;;5038869;28;20346;-69
2023/03/22 04:39:04;;;;;;;;;;;26.00;99.90;;;;;;5022252;28;19972;-69
2023/03/22 04:41:31;;;;;;;;;;;26.10;99.90;;;;;;5036247;28;19920;-71
2023/03/22 04:44:02;;;;;;;;;;;26.00;99.90;;;;;;5060183;28;19919;-70
2023/03/22 04:46:33;;;;;;;;;;;26.00;99.90;;;;;;5044084;28;20036;-68
2023/03/22 04:49:00;;;;;;;;;;;25.80;99.90;;;;;;5038235;28;19948;-68
2023/03/22 04:51:27;;;;;;;;;;;25.60;99.90;;;;;;5036656;28;20254;-70
2023/03/22 04:53:54;;;;;;;;;;;25.60;99.90;;;;;;5036098;28;19993;-69
2023/03/22 04:56:20;;;;;;;;;;;25.50;99.90;;;;;;5037587;28;19908;-69
2023/03/22 04:58:47;;;;;;;;;;;25.50;99.90;;;;;;5039112;28;19916;-69
2023/03/22 05:01:15;;;;;;;;;;;25.40;99.90;;;;;;5043905;28;19919;-68
2023/03/22 05:03:46;;;;;;;;;;;25.20;99.90;;;;;;5039128;28;19920;-69
2023/03/22 05:06:12;;;;;;;;;;;25.10;99.90;;;;;;5039446;28;20331;-69
2023/03/22 05:08:39;;;;;;;;;;;25.00;99.90;;;;;;5037653;28;19920;-67
2023/03/22 05:11:08;;;;;;;;;;;25.00;99.90;;;;;;5043661;28;19908;-65
2023/03/22 05:13:36;;;;;;;;;;;25.00;99.90;;;;;;5027572;28;19913;-69
2023/03/22 05:16:03;;;;;;;;;;;24.90;99.90;;;;;;5039276;28;19928;-68
2023/03/22 05:18:31;;;;;;;;;;;25.00;99.90;;;;;;5037712;28;19920;-68
2023/03/22 05:20:59;;;;;;;;;;;25.10;99.90;;;;;;5043206;28;20005;-67
2023/03/22 05:23:26;;;;;;;;;;;25.10;99.90;;;;;;5049422;28;20382;-68
2023/03/22 05:25:53;;;;;;;;;;;25.10;99.90;;;;;;5038721;28;20365;-71
2023/03/22 05:28:21;;;;;;;;;;;25.10;99.90;;;;;;5038931;28;19927;-71
2023/03/22 05:30:48;;;;;;;;;;;25.00;99.90;;;;;;5041161;28;19915;-68
2023/03/22 05:33:20;;;;;;;;;;;24.80;99.90;;;;;;5040300;28;19916;-70
2023/03/22 05:35:48;;;;;;;;;;;24.70;99.90;;;;;;5037843;28;19939;-71
2023/03/22 05:38:15;;;;;;;;;;;24.60;99.90;;;;;;5038583;28;19913;-68
2023/03/22 05:40:42;;;;;;;;;;;24.50;99.90;;;;;;5038455;28;19921;-67
2023/03/22 05:43:09;;;;;;;;;;;24.40;99.90;;;;;;5039208;28;19921;-68
2023/03/22 05:45:36;;;;;;;;;;;24.30;99.90;;;;;;5036605;28;20598;-69
2023/03/22 05:48:03;;;;;;;;;;;24.30;99.90;;;;;;5039071;28;20374;-69
2023/03/22 05:50:30;;;;;;;;;;;24.30;99.90;;;;;;5036124;28;19909;-68
2023/03/22 05:52:56;;;;;;;;;;;24.30;99.90;;;;;;5057826;28;19913;-68
2023/03/22 05:55:23;;;;;;;;;;;24.30;99.90;;;;;;5037963;28;19913;-66
2023/03/22 05:57:52;;;;;;;;;;;24.10;99.90;;;;;;5037024;28;19909;-68
2023/03/22 06:00:20;;;;;;;;;;;24.10;99.90;;;;;;5037589;28;20312;-68
2023/03/22 06:02:48;;;;;;;;;;;24.20;99.90;;;;;;5041432;28;19916;-68
2023/03/22 06:05:16;;;;;;;;;;;24.00;99.90;;;;;;5034339;28;20028;-68
2023/03/22 06:07:43;;;;;;;;;;;23.90;99.90;;;;;;5033934;28;19909;-68
2023/03/22 06:10:12;;;;;;;;;;;23.90;99.90;;;;;;5036333;28;19920;-68
2023/03/22 06:12:38;;;;;;;;;;;23.80;99.90;;;;;;5035268;28;19908;-68
2023/03/22 06:15:06;;;;;;;;;;;23.80;99.90;;;;;;5035448;28;19912;-69
2023/03/22 06:17:33;;;;;;;;;;;23.70;99.90;;;;;;5035649;28;19909;-69
2023/03/22 06:19:59;;;;;;;;;;;23.80;99.90;;;;;;5036026;28;19912;-67
2023/03/22 06:22:29;;;;;;;;;;;23.90;99.90;;;;;;5039210;28;19921;-67
2023/03/22 06:24:55;;;;;;;;;;;24.10;99.90;;;;;;5036377;28;19989;-68
2023/03/22 06:27:22;;;;;;;;;;;24.20;99.90;;;;;;5042169;28;19924;-68
2023/03/22 06:29:49;;;;;;;;;;;24.30;99.90;;;;;;5040154;28;19913;-67
2023/03/22 06:32:16;;;;;;;;;;;24.30;99.90;;;;;;5042256;28;19931;-68
2023/03/22 06:34:43;;;;;;;;;;;24.30;99.90;;;;;;5041085;28;19955;-67
2023/03/22 06:37:09;;;;;;;;;;;24.40;99.90;;;;;;5042110;28;19913;-67
2023/03/22 06:39:36;;;;;;;;;;;24.40;99.90;;;;;;5040879;28;19919;-68
2023/03/22 06:42:03;;;;;;;;;;;24.30;99.90;;;;;;5041862;28;19921;-67
2023/03/22 06:44:29;;;;;;;;;;;24.20;99.90;;;;;;5042221;28;19920;-69
2023/03/22 06:46:56;;;;;;;;;;;24.20;99.90;;;;;;5041360;28;19909;-66
2023/03/22 06:49:23;;;;;;;;;;;24.20;99.90;;;;;;5042360;28;20007;-70
2023/03/22 06:51:49;;;;;;;;;;;24.10;99.90;;;;;;5040577;28;19915;-68
2023/03/22 06:54:16;;;;;;;;;;;24.10;99.90;;;;;;5041894;28;19913;-68
2023/03/22 06:56:43;;;;;;;;;;;23.90;99.90;;;;;;5040806;28;19952;-67
2023/03/22 06:59:09;;;;;;;;;;;23.90;99.90;;;;;;5041675;28;19913;-65
2023/03/22 07:01:36;;;;;;;;;;;23.80;99.90;;;;;;5041186;28;20278;-68
2023/03/22 07:04:03;;;;;;;;;;;23.70;99.90;;;;;;5041335;28;19908;-69
2023/03/22 07:06:31;;;;;;;;;;;23.70;99.90;;;;;;5041956;28;19999;-66
2023/03/22 07:08:58;;;;;;;;;;;23.70;99.90;;;;;;5040558;28;20354;-67
2023/03/22 07:11:25;;;;;;;;;;;23.70;99.90;;;;;;5040671;28;20734;-68
2023/03/22 07:13:54;;;;;;;;;;;23.80;99.90;;;;;;5040154;28;19909;-70
2023/03/22 07:16:21;;;;;;;;;;;23.70;99.90;;;;;;5041618;28;20318;-68
2023/03/22 07:18:48;;;;;;;;;;;23.70;99.90;;;;;;5040730;28;19970;-69
2023/03/22 07:21:15;;;;;;;;;;;23.60;99.90;;;;;;5041268;28;20267;-70
2023/03/22 07:23:41;;;;;;;;;;;23.60;99.90;;;;;;5039648;28;20366;-70
2023/03/22 07:26:08;;;;;;;;;;;23.40;99.90;;;;;;5041068;28;20000;-69
2023/03/22 07:28:35;;;;;;;;;;;23.30;99.90;;;;;;5042013;28;19917;-69
2023/03/22 07:31:03;;;;;;;;;;;23.20;99.90;;;;;;5040553;28;19932;-66
2023/03/22 07:33:30;;;;;;;;;;;23.10;99.90;;;;;;5041034;28;20642;-67
2023/03/22 07:35:56;;;;;;;;;;;23.10;99.90;;;;;;5039195;28;20684;-68
2023/03/22 07:38:23;;;;;;;;;;;23.00;99.90;;;;;;5040682;28;19913;-67
2023/03/22 07:40:53;;;;;;;;;;;23.00;99.90;;;;;;5039415;28;19932;-67
2023/03/22 07:43:20;;;;;;;;;;;22.90;99.90;;;;;;5039037;28;19963;-67
2023/03/22 07:45:51;;;;;;;;;;;22.90;99.90;;;;;;5038815;28;20362;-67
2023/03/22 07:48:19;;;;;;;;;;;22.80;99.90;;;;;;5037015;28;19913;-66
2023/03/22 07:50:45;;;;;;;;;;;22.80;99.90;;;;;;5038778;28;19932;-69
2023/03/22 07:53:13;;;;;;;;;;;22.80;99.90;;;;;;5038710;28;19917;-67
2023/03/22 07:55:41;;;;;;;;;;;22.80;99.90;;;;;;5040722;28;20372;-68
2023/03/22 07:58:08;;;;;;;;;;;22.70;99.90;;;;;;5040066;28;19920;-68
2023/03/22 08:00:34;;;;;;;;;;;22.60;99.90;;;;;;5041212;28;20380;-68
2023/03/22 08:03:01;;;;;;;;;;;22.70;99.90;;;;;;5038768;28;20644;-67
2023/03/22 08:05:28;;;;;;;;;;;22.60;99.90;;;;;;5040389;28;19916;-68
2023/03/22 08:07:55;;;;;;;;;;;22.60;99.90;;;;;;5038902;28;20015;-68
2023/03/22 08:10:22;;;;;;;;;;;22.60;99.90;;;;;;5037734;28;19935;-68
2023/03/22 08:12:49;;;;;;;;;;;22.70;99.90;;;;;;5037234;28;20028;-68
2023/03/22 08:15:15;;;;;;;;;;;22.60;99.90;;;;;;5038694;28;19908;-68
2023/03/22 08:17:42;;;;;;;;;;;22.60;99.90;;;;;;5040640;28;19913;-70
2023/03/22 08:20:09;;;;;;;;;;;22.60;99.90;;;;;;5038409;28;19913;-68
2023/03/22 08:22:36;;;;;;;;;;;22.60;99.90;;;;;;5038702;28;20004;-68
2023/03/22 08:25:04;;;;;;;;;;;22.60;99.90;;;;;;5038843;28;19913;-69
2023/03/22 08:27:30;;;;;;;;;;;22.60;99.90;;;;;;5038747;28;20492;-69
2023/03/22 08:29:57;;;;;;;;;;;22.60;99.90;;;;;;5037844;28;19916;-67
2023/03/22 08:32:24;;;;;;;;;;;22.60;99.90;;;;;;5037801;28;19974;-69
2023/03/22 08:34:51;;;;;;;;;;;22.60;99.90;;;;;;5038051;28;20428;-69
2023/03/22 08:37:21;;;;;;;;;;;22.60;99.90;;;;;;5039047;28;20277;-69
2023/03/22 08:39:47;;;;;;;;;;;22.70;99.90;;;;;;5039655;28;19909;-70
2023/03/22 08:42:15;;;;;;;;;;;22.70;99.90;;;;;;5039862;28;19982;-68
2023/03/22 08:44:41;;;;;;;;;;;22.70;99.90;;;;;;5040573;28;19964;-69
2023/03/22 08:47:12;;;;;;;;;;;22.60;99.90;;;;;;5036786;28;20256;-71
2023/03/22 08:49:39;;;;;;;;;;;22.60;99.90;;;;;;5039625;28;19923;-69
2023/03/22 08:52:07;;;;;;;;;;;22.60;99.90;;;;;;5038711;28;19916;-70
2023/03/22 08:54:34;;;;;;;;;;;22.60;99.90;;;;;;5039527;28;20319;-68
2023/03/22 08:57:02;;;;;;;;;;;22.60;99.90;;;;;;5038239;28;19908;-69
2023/03/22 08:59:28;;;;;;;;;;;22.60;99.90;;;;;;5039209;28;19943;-69
2023/03/22 09:01:55;;;;;;;;;;;22.60;99.90;;;;;;5038999;28;19909;-68
2023/03/22 09:04:22;;;;;;;;;;;22.50;99.90;;;;;;5039407;28;19982;-68
2023/03/22 09:06:49;;;;;;;;;;;22.50;99.90;;;;;;5039986;28;20354;-68
2023/03/22 09:09:15;;;;;;;;;;;22.50;99.90;;;;;;5038389;28;19966;-68
2023/03/22 09:11:43;;;;;;;;;;;22.50;99.90;;;;;;5039507;28;20618;-68
2023/03/22 09:14:10;;;;;;;;;;;22.50;99.90;;;;;;5037789;28;19913;-67
2023/03/22 09:16:37;;;;;;;;;;;22.50;99.90;;;;;;5038643;28;20334;-66
2023/03/22 09:19:03;;;;;;;;;;;22.60;99.90;;;;;;5037964;28;19920;-66
2023/03/22 09:21:30;;;;;;;;;;;22.50;99.90;;;;;;5038686;28;19967;-69
2023/03/22 09:23:57;;;;;;;;;;;22.50;99.90;;;;;;5039233;28;20289;-68
2023/03/22 09:26:24;;;;;;;;;;;22.50;99.90;;;;;;5035533;28;19966;-67
2023/03/22 09:28:51;;;;;;;;;;;22.50;99.90;;;;;;5038834;28;20358;-68
2023/03/22 09:31:17;;;;;;;;;;;22.50;99.90;;;;;;5037271;28;19909;-67
2023/03/22 09:33:45;;;;;;;;;;;22.50;99.90;;;;;;5039152;28;20590;-67
2023/03/22 09:36:11;;;;;;;;;;;22.60;99.90;;;;;;5038581;28;20377;-69
2023/03/22 09:38:40;;;;;;;;;;;22.50;99.90;;;;;;5037841;28;20430;-68
2023/03/22 09:41:27;;;;;;;;;;;22.60;99.90;;;;;;5039114;28;19990;-68
2023/03/22 09:43:56;;;;;;;;;;;22.50;99.90;;;;;;5038751;28;19925;-69
2023/03/22 09:46:34;;;;;;;;;;;22.50;99.90;;;;;;5038112;28;19913;-68
2023/03/22 09:49:02;;;;;;;;;;;22.50;99.90;;;;;;5039535;28;19955;-68
2023/03/22 09:51:28;;;;;;;;;;;22.50;99.90;;;;;;5038370;28;20384;-70
2023/03/22 09:53:55;;;;;;;;;;;22.50;99.90;;;;;;5037575;28;19919;-69
2023/03/22 09:56:26;;;;;;;;;;;22.50;99.90;;;;;;5037044;28;19909;-69
2023/03/22 09:58:56;;;;;;;;;;;22.50;99.90;;;;;;5039031;28;19927;-68
2023/03/22 10:01:33;;;;;;;;;;;22.50;99.90;;;;;;5041451;28;19964;-69
2023/03/22 10:04:12;;;;;;;;;;;22.50;99.90;;;;;;5042907;28;20293;-69
2023/03/22 10:06:43;;;;;;;;;;;22.60;99.90;;;;;;5040974;28;19913;-69
2023/03/22 10:09:18;;;;;;;;;;;22.50;99.90;;;;;;5042443;28;20532;-68
2023/03/22 10:12:05;;;;;;;;;;;22.50;99.90;;;;;;5042085;28;20301;-68
2023/03/22 10:14:38;;;;;;;;;;;22.40;99.90;;;;;;5041980;28;19913;-71
2023/03/22 10:17:11;;;;;;;;;;;22.50;99.90;;;;;;5042399;28;20099;-69
2023/03/22 10:19:50;;;;;;;;;;;22.40;99.90;;;;;;5041925;28;20381;-68
2023/03/22 10:22:18;;;;;;;;;;;22.40;99.90;;;;;;5043391;28;19916;-70
2023/03/22 10:24:45;;;;;;;;;;;22.40;99.90;;;;;;5040769;28;19959;-66
2023/03/22 10:27:17;;;;;;;;;;;22.40;99.90;;;;;;5042649;28;19917;-69
2023/03/22 10:29:48;;;;;;;;;;;22.40;99.90;;;;;;5040759;28;19916;-67
2023/03/22 10:32:15;;;;;;;;;;;22.40;99.90;;;;;;5042867;28;20285;-65
2023/03/22 10:34:45;;;;;;;;;;;22.40;99.90;;;;;;5037159;28;20770;-67
2023/03/22 10:37:16;;;;;;;;;;;22.40;99.90;;;;;;5042188;28;20381;-67
2023/03/22 10:39:50;;;;;;;;;;;22.40;99.90;;;;;;5040508;28;19912;-69
2023/03/22 10:42:20;;;;;;;;;;;22.40;99.90;;;;;;5041831;28;19925;-68
2023/03/22 10:44:58;;;;;;;;;;;22.40;99.90;;;;;;5039941;28;19912;-67
2023/03/22 10:47:34;;;;;;;;;;;22.40;99.90;;;;;;5042076;28;19919;-69
2023/03/22 10:50:02;;;;;;;;;;;22.40;99.90;;;;;;5040424;28;20637;-69
2023/03/22 10:52:39;;;;;;;;;;;22.30;99.90;;;;;;5042130;28;20623;-68
2023/03/22 10:55:09;;;;;;;;;;;22.40;99.90;;;;;;5041599;28;19920;-68
2023/03/22 10:57:38;;;;;;;;;;;22.30;99.90;;;;;;5041864;28;19955;-66
2023/03/22 11:00:11;;;;;;;;;;;22.40;99.90;;;;;;5040325;28;19966;-68
2023/03/22 11:02:47;;;;;;;;;;;22.40;99.90;;;;;;5039963;28;19947;-68
2023/03/22 11:05:24;;;;;;;;;;;22.40;99.90;;;;;;5023760;28;20278;-66
2023/03/22 11:07:51;;;;;;;;;;;22.40;99.90;;;;;;5038494;28;19948;-67
2023/03/22 11:10:20;;;;;;;;;;;22.40;99.90;;;;;;5040077;28;19908;-68
2023/03/22 11:12:54;;;;;;;;;;;22.40;99.90;;;;;;5040480;28;19908;-68
2023/03/22 11:15:23;;;;;;;;;;;22.40;99.90;;;;;;5021722;28;20004;-67
2023/03/22 11:17:50;;;;;;;;;;;22.30;99.90;;;;;;5020378;28;19909;-69
2023/03/22 11:20:18;;;;;;;;;;;22.30;99.90;;;;;;5040817;28;19919;-67
2023/03/22 11:22:45;;;;;;;;;;;22.30;99.90;;;;;;5039398;28;19916;-68
2023/03/22 11:25:19;;;;;;;;;;;22.30;99.90;;;;;;5041052;28;20292;-67
2023/03/22 11:27:51;;;;;;;;;;;22.30;99.90;;;;;;5042407;28;19912;-68
2023/03/22 11:30:28;;;;;;;;;;;22.30;99.90;;;;;;5040279;28;19912;-69
2023/03/22 11:33:17;;;;;;;;;;;22.20;99.90;;;;;;5041401;28;19912;-69
2023/03/22 11:35:47;;;;;;;;;;;22.20;99.90;;;;;;5041639;28;19912;-67
2023/03/22 11:38:32;;;;;;;;;;;22.10;99.90;;;;;;5040210;28;20011;-69
2023/03/22 11:41:00;;;;;;;;;;;22.10;99.90;;;;;;5041750;28;19920;-65
2023/03/22 11:43:32;;;;;;;;;;;22.10;99.90;;;;;;5040067;28;19948;-67
2023/03/22 11:45:59;;;;;;;;;;;22.10;99.90;;;;;;5041247;28;19916;-67
2023/03/22 11:48:30;;;;;;;;;;;22.00;99.90;;;;;;5040120;28;19920;-67
2023/03/22 11:51:05;;;;;;;;;;;22.00;99.90;;;;;;5041535;28;20012;-66
2023/03/22 11:53:33;;;;;;;;;;;21.90;99.90;;;;;;5040400;28;19909;-68
2023/03/22 11:56:01;;;;;;;;;;;21.90;99.90;;;;;;5041412;28;19909;-67
2023/03/22 11:58:29;;;;;;;;;;;21.80;99.90;;;;;;5039980;28;20007;-68
2023/03/22 12:01:00;;;;;;;;;;;21.80;99.90;;;;;;5041182;28;20421;-70
2023/03/22 12:03:36;;;;;;;;;;;21.70;99.90;;;;;;5055225;28;20015;-69
2023/03/22 12:06:04;;;;;;;;;;;21.70;99.90;;;;;;5041590;28;20348;-68
2023/03/22 12:08:30;;;;;;;;;;;21.70;99.90;;;;;;5040741;28;20647;-66
2023/03/22 12:11:03;;;;;;;;;;;21.60;99.90;;;;;;5041208;28;20377;-68
2023/03/22 12:13:44;;;;;;;;;;;21.60;99.90;;;;;;5039544;28;19909;-67
2023/03/22 12:16:12;;;;;;;;;;;21.60;99.90;;;;;;5039639;28;19913;-68
2023/03/22 12:18:39;;;;;;;;;;;21.50;99.90;;;;;;5041074;28;19948;-71
2023/03/22 12:21:08;;;;;;;;;;;21.40;99.90;;;;;;5040323;28;20307;-68
2023/03/22 12:23:35;;;;;;;;;;;21.40;99.90;;;;;;5039555;28;19924;-67
2023/03/22 12:26:08;;;;;;;;;;;21.40;99.90;;;;;;5039567;28;19909;-67
2023/03/22 12:28:39;;;;;;;;;;;21.40;99.90;;;;;;5038409;28;19909;-67
2023/03/22 12:31:10;;;;;;;;;;;21.40;99.90;;;;;;5040901;28;19998;-67
2023/03/22 12:33:42;;;;;;;;;;;21.40;99.90;;;;;;5040304;28;20376;-66
2023/03/22 12:36:16;;;;;;;;;;;21.40;99.90;;;;;;5040634;28;19908;-69
2023/03/22 12:38:47;;;;;;;;;;;21.40;99.90;;;;;;5040543;28;19909;-69
2023/03/22 12:41:16;;;;;;;;;;;21.40;99.90;;;;;;5040204;28;19921;-69
2023/03/22 12:43:57;;;;;;;;;;;21.40;99.90;;;;;;5040170;28;19921;-68
2023/03/22 12:46:32;;;;;;;;;;;21.40;99.90;;;;;;5039953;28;20377;-66
2023/03/22 12:49:04;;;;;;;;;;;21.40;99.90;;;;;;5040664;28;19944;-69
2023/03/22 12:51:31;;;;;;;;;;;21.40;99.90;;;;;;5039294;28;20381;-69
2023/03/22 12:53:59;;;;;;;;;;;21.40;99.90;;;;;;5040752;28;20381;-67
2023/03/22 12:56:28;;;;;;;;;;;21.40;99.90;;;;;;5039718;28;19913;-68
2023/03/22 12:59:00;;;;;;;;;;;21.40;99.90;;;;;;5040268;28;19908;-68
2023/03/22 13:01:39;;;;;;;;;;;21.40;99.90;;;;;;5037519;28;19959;-67
2023/03/22 13:04:24;;;;;;;;;;;21.40;99.90;;;;;;5040111;28;19928;-69
2023/03/22 13:06:52;;;;;;;;;;;21.50;99.90;;;;;;5039878;28;19973;-67
2023/03/22 13:09:20;;;;;;;;;;;21.40;99.90;;;;;;5039568;28;19916;-66
2023/03/22 13:12:06;;;;;;;;;;;21.40;99.90;;;;;;5040222;28;19909;-69
2023/03/22 13:14:51;;;;;;;;;;;21.50;99.90;;;;;;5038893;28;19963;-67
2023/03/22 13:17:24;;;;;;;;;;;21.40;99.90;;;;;;5040100;28;19946;-68
2023/03/22 13:19:58;;;;;;;;;;;21.40;99.90;;;;;;5038829;28;20369;-69
2023/03/22 13:22:36;;;;;;;;;;;21.50;99.90;;;;;;5039430;28;19917;-67
2023/03/22 13:25:07;;;;;;;;;;;21.50;99.90;;;;;;5040471;28;19909;-68
2023/03/22 13:27:40;;;;;;;;;;;21.40;99.90;;;;;;5039326;28;20288;-69
2023/03/22 13:30:22;;;;;;;;;;;21.40;99.90;;;;;;5040720;28;20004;-67
2023/03/22 13:32:53;;;;;;;;;;;21.50;99.90;;;;;;5037623;28;19913;-69
2023/03/22 13:35:27;;;;;;;;;;;21.50;99.90;;;;;;5040382;28;19909;-67
2023/03/22 13:38:00;;;;;;;;;;;21.50;99.90;;;;;;5038593;28;19995;-69
2023/03/22 13:40:28;;;;;;;;;;;21.60;99.90;;;;;;5039019;28;20007;-67
2023/03/22 13:43:09;;;;;;;;;;;21.50;99.90;;;;;;5039149;28;19932;-68
2023/03/22 13:45:35;;;;;;;;;;;21.60;99.90;;;;;;5039501;28;19916;-67
2023/03/22 13:48:03;;;;;;;;;;;21.60;99.90;;;;;;5039359;28;19932;-67
2023/03/22 13:50:31;;;;;;;;;;;21.60;99.90;;;;;;5038995;28;20003;-67
2023/03/22 13:53:29;;;;;;;;;;;21.60;99.90;;;;;;5038868;28;19909;-66
2023/03/22 13:55:55;;;;;;;;;;;21.60;99.90;;;;;;5038334;28;20384;-68
2023/03/22 13:58:35;;;;;;;;;;;21.60;99.90;;;;;;5039917;28;19916;-70
2023/03/22 14:01:06;;;;;;;;;;;21.70;99.90;;;;;;5038547;28;19908;-69
2023/03/22 14:03:35;;;;;;;;;;;21.60;99.90;;;;;;5038754;28;19920;-69
2023/03/22 14:06:04;;;;;;;;;;;21.60;99.90;;;;;;5038642;28;20618;-66
2023/03/22 14:08:31;;;;;;;;;;;21.60;99.90;;;;;;5038807;28;19967;-68
2023/03/22 14:11:02;;;;;;;;;;;21.60;99.90;;;;;;5039386;28;20732;-69
2023/03/22 14:13:29;;;;;;;;;;;21.60;99.90;;;;;;5039253;28;20274;-67
2023/03/22 14:16:03;;;;;;;;;;;21.50;99.90;;;;;;5038828;28;19909;-67
2023/03/22 14:18:31;;;;;;;;;;;21.50;99.90;;;;;;5039182;28;19932;-67
2023/03/22 14:20:59;;;;;;;;;;;21.50;99.90;;;;;;5038726;28;20340;-68
2023/03/22 14:23:28;;;;;;;;;;;21.50;99.90;;;;;;5039272;28;19939;-67
2023/03/22 14:25:56;;;;;;;;;;;21.50;99.90;;;;;;5038321;28;19909;-68
2023/03/22 14:28:31;;;;;;;;;;;21.60;99.90;;;;;;5039639;28;19917;-69
2023/03/22 14:30:58;;;;;;;;;;;21.60;99.90;;;;;;5038666;28;19913;-68